createdAt,value
2019-01-03T00:01:42.861Z,-1.37
2019-01-03T00:04:39.743Z,-1.36
2019-01-03T00:07:26.911Z,-1.40
2019-01-03T00:10:14.131Z,-1.42
2019-01-03T00:13:01.105Z,-1.41
2019-01-03T00:15:49.383Z,-1.39
2019-01-03T00:18:46.530Z,-1.44
2019-01-03T00:21:46.690Z,-1.49
2019-01-03T00:24:47.089Z,-1.52
2019-01-03T00:27:29.513Z,-1.44
2019-01-03T00:30:17.320Z,-1.52
2019-01-03T00:33:05.730Z,-1.51
2019-01-03T00:35:52.565Z,-1.62
2019-01-03T00:38:46.930Z,-1.62
2019-01-03T00:41:41.340Z,-1.60
2019-01-03T00:44:35.153Z,-1.60
2019-01-03T00:47:21.881Z,-1.64
2019-01-03T00:50:06.332Z,-1.62
2019-01-03T00:52:53.099Z,-1.62
2019-01-03T00:55:39.921Z,-1.70
2019-01-03T00:58:23.612Z,-1.75
2019-01-03T01:01:11.946Z,-1.69
2019-01-03T01:04:15.280Z,-1.73
2019-01-03T01:06:59.075Z,-1.77
2019-01-03T01:09:49.949Z,-1.85
2019-01-03T01:12:36.798Z,-1.88
2019-01-03T01:15:25.094Z,-1.87
2019-01-03T01:18:22.508Z,-1.90
2019-01-03T01:21:09.483Z,-1.90
2019-01-03T01:23:55.988Z,-1.87
2019-01-03T01:26:42.678Z,-1.86
2019-01-03T01:29:31.874Z,-1.94
2019-01-03T01:32:28.193Z,-2.03
2019-01-03T01:35:24.003Z,-1.94
2019-01-03T01:38:16.263Z,-2.01
2019-01-03T01:41:02.898Z,-2.01
2019-01-03T01:43:56.890Z,-2.10
2019-01-03T01:46:43.938Z,-2.27
2019-01-03T01:49:30.979Z,-2.32
2019-01-03T01:52:34.589Z,-2.33
2019-01-03T01:55:21.253Z,-2.37
2019-01-03T01:58:08.048Z,-2.40
2019-01-03T02:01:02.157Z,-2.38
2019-01-03T02:04:08.713Z,-2.48
2019-01-03T02:07:07.186Z,-2.44
2019-01-03T02:09:57.170Z,-2.42
2019-01-03T02:13:00.313Z,-2.44
2019-01-03T02:15:51.866Z,-2.44
2019-01-03T02:18:45.593Z,-2.53
2019-01-03T02:21:32.759Z,-2.48
2019-01-03T02:24:19.619Z,-2.54
2019-01-03T02:27:19.799Z,-2.49
2019-01-03T02:30:06.582Z,-2.56
2019-01-03T02:33:09.796Z,-2.53
2019-01-03T02:36:13.061Z,-2.50
2019-01-03T02:39:10.124Z,-2.52
2019-01-03T02:41:58.202Z,-2.52
2019-01-03T02:44:45.068Z,-2.55
2019-01-03T02:47:45.463Z,-2.58
2019-01-03T02:50:30.589Z,-2.70
2019-01-03T02:53:17.969Z,-2.63
2019-01-03T02:56:12.388Z,-2.65
2019-01-03T02:58:56.673Z,-2.58
2019-01-03T03:01:43.377Z,-2.47
2019-01-03T03:04:29.053Z,-2.60
2019-01-03T03:07:22.945Z,-2.69
2019-01-03T03:10:15.264Z,-2.78
2019-01-03T03:12:55.195Z,-2.78
2019-01-03T03:15:42.547Z,-2.79
2019-01-03T03:18:33.672Z,-2.81
2019-01-03T03:21:29.913Z,-2.79
2019-01-03T03:24:17.038Z,-2.80
2019-01-03T03:27:03.775Z,-2.86
2019-01-03T03:29:58.020Z,-2.92
2019-01-03T03:32:49.125Z,-2.95
2019-01-03T03:35:40.196Z,-3.00
2019-01-03T03:38:46.755Z,-2.87
2019-01-03T03:41:37.518Z,-2.95
2019-01-03T03:44:34.743Z,-3.04
2019-01-03T03:47:25.139Z,-3.16
2019-01-03T03:50:25.211Z,-3.04
2019-01-03T03:53:06.796Z,-2.97
2019-01-03T03:55:54.089Z,-2.98
2019-01-03T03:58:41.178Z,-3.02
2019-01-03T04:01:44.341Z,-3.05
2019-01-03T04:04:31.074Z,-3.10
2019-01-03T04:07:17.925Z,-3.11
2019-01-03T04:10:12.295Z,-3.09
2019-01-03T04:12:59.211Z,-3.05
2019-01-03T04:15:47.273Z,-3.13
2019-01-03T04:18:37.632Z,-3.01
2019-01-03T04:21:24.456Z,-3.03
2019-01-03T04:24:08.009Z,-3.04
2019-01-03T04:27:08.551Z,-3.06
2019-01-03T04:30:00.075Z,-3.13
2019-01-03T04:32:47.094Z,-3.23
2019-01-03T04:35:47.270Z,-3.22
2019-01-03T04:38:38.409Z,-3.19
2019-01-03T04:41:24.901Z,-3.21
2019-01-03T04:44:07.717Z,-3.22
2019-01-03T04:46:50.175Z,-3.27
2019-01-03T04:49:37.066Z,-3.29
2019-01-03T04:52:17.839Z,-3.31
2019-01-03T04:55:08.923Z,-3.26
2019-01-03T04:57:55.852Z,-3.21
2019-01-03T05:00:53.636Z,-3.23
2019-01-03T05:03:57.522Z,-3.31
2019-01-03T05:06:44.433Z,-3.35
2019-01-03T05:09:31.502Z,-3.38
2019-01-03T05:12:38.309Z,-3.44
2019-01-03T05:15:38.659Z,-3.47
2019-01-03T05:18:29.601Z,-3.46
2019-01-03T05:21:22.689Z,-3.45
2019-01-03T05:24:09.331Z,-3.45
2019-01-03T05:27:05.686Z,-3.38
2019-01-03T05:29:49.760Z,-3.34
2019-01-03T05:32:40.573Z,-3.36
2019-01-03T05:35:31.621Z,-3.32
2019-01-03T05:38:18.432Z,-3.37
2019-01-03T05:41:08.838Z,-3.30
2019-01-03T05:43:52.315Z,-3.36
2019-01-03T05:46:52.351Z,-3.16
2019-01-03T05:49:39.394Z,-3.18
2019-01-03T05:52:39.550Z,-3.27
2019-01-03T05:55:28.248Z,-3.22
2019-01-03T05:58:15.340Z,-3.21
2019-01-03T06:01:03.836Z,-3.27
2019-01-03T06:03:50.172Z,-3.21
2019-01-03T06:06:37.290Z,-3.28
2019-01-03T06:09:32.388Z,-3.34
2019-01-03T06:12:20.437Z,-3.26
2019-01-03T06:15:24.310Z,-3.25
2019-01-03T06:18:30.778Z,-3.28
2019-01-03T06:21:17.158Z,-3.33
2019-01-03T06:24:03.851Z,-3.13
2019-01-03T06:26:51.062Z,-3.02
2019-01-03T06:29:41.884Z,-3.16
2019-01-03T06:32:28.545Z,-3.25
2019-01-03T06:35:16.545Z,-3.23
2019-01-03T06:38:07.472Z,-3.16
2019-01-03T06:40:58.945Z,-2.66
2019-01-03T06:43:46.353Z,-2.39
2019-01-03T06:46:33.315Z,-2.45
2019-01-03T06:49:20.391Z,-2.42
2019-01-03T06:52:11.594Z,-1.98
2019-01-03T06:54:58.356Z,-1.84
2019-01-03T06:58:01.452Z,-1.71
2019-01-03T07:01:01.808Z,-1.70
2019-01-03T07:03:59.485Z,-1.77
2019-01-03T07:06:46.411Z,-2.01
2019-01-03T07:09:48.433Z,-2.33
2019-01-03T07:12:38.013Z,-2.40
2019-01-03T07:15:25.121Z,-2.24
2019-01-03T07:18:31.561Z,-2.21
2019-01-03T07:21:18.721Z,-2.11
2019-01-03T07:24:03.611Z,-1.84
2019-01-03T07:27:07.428Z,-1.66
2019-01-03T07:30:04.527Z,-1.85
2019-01-03T07:33:01.679Z,-1.90
2019-01-03T07:35:49.881Z,-1.95
2019-01-03T07:38:34.586Z,-2.01
2019-01-03T07:41:26.332Z,-2.06
2019-01-03T07:44:13.410Z,-2.09
2019-01-03T07:47:00.470Z,-1.95
2019-01-03T07:49:47.462Z,-2.09
2019-01-03T07:52:34.798Z,-2.22
2019-01-03T07:55:22.241Z,-2.11
2019-01-03T07:58:08.970Z,-2.02
2019-01-03T08:00:55.967Z,-2.13
2019-01-03T08:03:55.797Z,-2.08
2019-01-03T08:06:50.002Z,-2.06
2019-01-03T08:09:46.896Z,-2.00
2019-01-03T08:12:41.065Z,-2.10
2019-01-03T08:15:28.093Z,-1.94
2019-01-03T08:18:34.570Z,-1.91
2019-01-03T08:21:31.909Z,-1.87
2019-01-03T08:24:24.086Z,-1.89
2019-01-03T08:27:11.885Z,-1.75
2019-01-03T08:30:03.213Z,-1.72
2019-01-03T08:32:50.615Z,-1.73
2019-01-03T08:35:40.048Z,-1.70
2019-01-03T08:38:27.388Z,-1.58
2019-01-03T08:41:21.350Z,-1.53
2019-01-03T08:44:09.505Z,-1.52
2019-01-03T08:47:04.603Z,-1.42
2019-01-03T08:50:01.489Z,-1.45
2019-01-03T08:52:48.421Z,-1.44
2019-01-03T08:55:39.352Z,-1.37
2019-01-03T08:58:26.816Z,-1.32
2019-01-03T09:01:23.773Z,-1.24
2019-01-03T09:04:24.373Z,-1.17
2019-01-03T09:07:24.769Z,-1.10
2019-01-03T09:10:13.539Z,-1.04
2019-01-03T09:13:10.723Z,-0.96
2019-01-03T09:15:57.842Z,-0.88
2019-01-03T09:18:45.076Z,-0.78
2019-01-03T09:21:33.092Z,-0.72
2019-01-03T09:24:30.773Z,-0.64
2019-01-03T09:27:17.429Z,-0.58
2019-01-03T09:30:08.481Z,-0.49
2019-01-03T09:33:06.653Z,-0.39
2019-01-03T09:35:53.570Z,-0.29
2019-01-03T09:38:40.479Z,-0.14
2019-01-03T09:41:27.320Z,-0.03
2019-01-03T09:44:07.867Z,0.31
2019-01-03T09:46:37.225Z,0.33
2019-01-03T09:49:06.348Z,0.34
2019-01-03T09:51:35.764Z,0.40
2019-01-03T09:54:05.768Z,0.43
2019-01-03T09:56:35.242Z,0.60
2019-01-03T09:59:04.317Z,0.63
2019-01-03T10:01:33.659Z,0.70
2019-01-03T10:04:02.995Z,0.67
2019-01-03T10:06:32.124Z,0.67
2019-01-03T10:09:01.437Z,0.72
2019-01-03T10:11:30.624Z,0.82
2019-01-03T10:13:59.750Z,0.82
2019-01-03T10:16:28.867Z,0.83
2019-01-03T10:18:58.260Z,0.88
2019-01-03T10:21:27.378Z,0.91
2019-01-03T10:23:56.497Z,1.09
2019-01-03T10:26:26.030Z,1.13
2019-01-03T10:28:55.114Z,1.10
2019-01-03T10:31:24.185Z,1.16
2019-01-03T10:33:53.461Z,1.17
2019-01-03T10:36:24.313Z,1.24
2019-01-03T10:38:54.025Z,1.24
2019-01-03T10:41:23.239Z,1.25
2019-01-03T10:43:52.472Z,1.20
2019-01-03T10:46:21.786Z,1.21
2019-01-03T10:48:51.602Z,1.11
2019-01-03T10:51:20.861Z,1.11
2019-01-03T10:53:50.115Z,1.15
2019-01-03T10:56:19.210Z,1.09
2019-01-03T10:58:48.537Z,1.11
2019-01-03T11:01:17.784Z,1.12
2019-01-03T11:03:47.292Z,1.11
2019-01-03T11:06:16.423Z,1.14
2019-01-03T11:08:45.563Z,1.20
2019-01-03T11:11:14.690Z,1.32
2019-01-03T11:13:43.908Z,1.29
2019-01-03T11:16:13.363Z,1.37
2019-01-03T11:18:42.588Z,1.46
2019-01-03T11:21:11.690Z,1.38
2019-01-03T11:23:40.806Z,1.47
2019-01-03T11:26:09.925Z,1.45
2019-01-03T11:28:39.313Z,1.58
2019-01-03T11:31:08.412Z,1.56
2019-01-03T11:33:37.654Z,1.44
2019-01-03T11:36:06.771Z,1.41
2019-01-03T11:38:36.158Z,1.45
2019-01-03T11:41:05.252Z,1.52
2019-01-03T11:43:34.533Z,1.48
2019-01-03T11:46:03.909Z,1.45
2019-01-03T11:48:33.003Z,1.50
2019-01-03T11:51:02.427Z,1.46
2019-01-03T11:53:31.601Z,1.44
2019-01-03T11:56:00.813Z,1.42
2019-01-03T11:58:29.872Z,1.52
2019-01-03T12:00:59.038Z,1.49
2019-01-03T12:03:28.280Z,1.53
2019-01-03T12:05:57.983Z,1.51
2019-01-03T12:08:27.063Z,1.55
2019-01-03T12:10:56.171Z,1.62
2019-01-03T12:13:25.389Z,1.60
2019-01-03T12:15:55.223Z,1.61
2019-01-03T12:18:24.581Z,1.61
2019-01-03T12:20:53.849Z,1.57
2019-01-03T12:23:23.055Z,1.63
2019-01-03T12:25:52.393Z,1.61
2019-01-03T12:28:21.810Z,1.62
2019-01-03T12:30:51.052Z,1.66
2019-01-03T12:33:20.124Z,1.79
2019-01-03T12:35:49.225Z,1.72
2019-01-03T12:38:18.345Z,1.73
2019-01-03T12:40:47.441Z,1.69
2019-01-03T12:43:16.698Z,1.69
2019-01-03T12:45:45.998Z,1.77
2019-01-03T12:48:15.280Z,1.77
2019-01-03T12:50:44.510Z,1.73
2019-01-03T12:53:13.658Z,1.74
2019-01-03T12:55:42.925Z,1.75
2019-01-03T12:58:12.170Z,1.78
2019-01-03T13:00:41.291Z,1.67
2019-01-03T13:03:10.560Z,1.55
2019-01-03T13:05:39.870Z,1.55
2019-01-03T13:08:09.301Z,1.49
2019-01-03T13:10:38.343Z,1.66
2019-01-03T13:13:07.494Z,1.65
2019-01-03T13:15:36.613Z,1.66
2019-01-03T13:18:06.106Z,1.70
2019-01-03T13:20:35.274Z,1.68
2019-01-03T13:23:04.534Z,1.67
2019-01-03T13:25:33.742Z,1.72
2019-01-03T13:28:02.865Z,1.77
2019-01-03T13:30:34.018Z,1.73
2019-01-03T13:33:03.359Z,1.59
2019-01-03T13:35:32.464Z,1.69
2019-01-03T13:38:01.557Z,1.73
2019-01-03T13:40:30.807Z,1.80
2019-01-03T13:43:00.040Z,1.89
2019-01-03T13:45:29.294Z,1.85
2019-01-03T13:47:58.563Z,1.98
2019-01-03T13:50:27.772Z,2.01
2019-01-03T13:52:56.847Z,1.79
2019-01-03T13:55:26.205Z,1.83
2019-01-03T13:57:55.293Z,1.90
2019-01-03T14:00:24.620Z,1.90
2019-01-03T14:02:53.853Z,1.79
2019-01-03T14:05:23.092Z,1.73
2019-01-03T14:07:52.297Z,1.69
2019-01-03T14:10:22.458Z,1.69
2019-01-03T14:12:51.557Z,1.64
2019-01-03T14:15:20.960Z,1.62
2019-01-03T14:17:50.243Z,1.63
2019-01-03T14:20:19.527Z,1.68
2019-01-03T14:22:48.599Z,1.64
2019-01-03T14:25:17.864Z,1.69
2019-01-03T14:27:47.028Z,1.60
2019-01-03T14:30:16.342Z,1.53
2019-01-03T14:32:45.465Z,1.60
2019-01-03T14:35:14.720Z,1.47
2019-01-03T14:37:44.032Z,1.58
2019-01-03T14:40:13.371Z,1.58
2019-01-03T14:42:42.447Z,1.46
2019-01-03T14:45:11.751Z,1.55
2019-01-03T14:47:40.843Z,1.49
2019-01-03T14:50:11.096Z,1.55
2019-01-03T14:52:40.223Z,1.52
2019-01-03T14:55:10.485Z,1.49
2019-01-03T14:57:39.692Z,1.47
2019-01-03T15:00:12.150Z,1.44
2019-01-03T15:02:41.281Z,1.32
2019-01-03T15:05:13.856Z,1.24
2019-01-03T15:07:41.476Z,1.16
2019-01-03T15:10:10.766Z,1.24
2019-01-03T15:12:39.845Z,1.23
2019-01-03T15:15:09.206Z,1.26
2019-01-03T15:17:38.391Z,1.27
2019-01-03T15:20:09.624Z,1.35
2019-01-03T15:22:38.977Z,1.24
2019-01-03T15:25:08.156Z,1.29
2019-01-03T15:27:37.261Z,1.29
2019-01-03T15:30:07.943Z,1.32
2019-01-03T15:32:37.418Z,1.27
2019-01-03T15:35:07.108Z,1.24
2019-01-03T15:37:37.054Z,1.29
2019-01-03T15:40:06.719Z,1.30
2019-01-03T15:42:35.797Z,1.30
2019-01-03T15:45:05.464Z,1.32
2019-01-03T15:47:34.828Z,1.30
2019-01-03T15:50:04.227Z,1.36
2019-01-03T15:52:33.411Z,1.36
2019-01-03T15:55:02.532Z,1.40
2019-01-03T15:57:31.620Z,1.38
2019-01-03T16:00:00.749Z,1.36
2019-01-03T16:02:31.236Z,1.29
2019-01-03T16:05:00.361Z,1.26
2019-01-03T16:07:30.673Z,1.31
2019-01-03T16:09:59.792Z,1.30
2019-01-03T16:12:28.891Z,1.32
2019-01-03T16:14:58.222Z,1.25
2019-01-03T16:17:27.366Z,1.23
2019-01-03T16:19:56.623Z,1.17
2019-01-03T16:22:25.872Z,1.13
2019-01-03T16:24:55.185Z,1.25
2019-01-03T16:27:24.387Z,1.21
2019-01-03T16:29:53.452Z,1.29
2019-01-03T16:32:22.956Z,1.49
2019-01-03T16:34:52.028Z,1.43
2019-01-03T16:37:21.175Z,1.55
2019-01-03T16:39:50.355Z,1.48
2019-01-03T16:42:19.635Z,1.48
2019-01-03T16:44:50.705Z,1.41
2019-01-03T16:47:20.110Z,1.54
2019-01-03T16:49:49.277Z,1.47
2019-01-03T16:52:18.572Z,1.51
2019-01-03T16:54:47.634Z,1.51
2019-01-03T16:57:16.883Z,1.50
2019-01-03T16:59:46.172Z,1.42
2019-01-03T17:02:15.401Z,1.43
2019-01-03T17:04:44.631Z,1.54
2019-01-03T17:07:13.827Z,1.61
2019-01-03T17:09:43.271Z,1.56
2019-01-03T17:12:12.395Z,1.58
2019-01-03T17:15:08.643Z,1.58
2019-01-03T17:17:38.041Z,1.59
2019-01-03T17:20:08.622Z,1.44
2019-01-03T17:22:39.574Z,1.44
2019-01-03T17:25:11.378Z,1.52
2019-01-03T17:27:40.746Z,1.52
2019-01-03T17:30:11.006Z,1.56
2019-01-03T17:32:40.160Z,1.52
2019-01-03T17:35:10.591Z,1.58
2019-01-03T17:37:41.900Z,1.62
2019-01-03T17:40:23.605Z,1.61
2019-01-03T17:42:52.791Z,1.62
2019-01-03T17:45:21.984Z,1.55
2019-01-03T17:47:51.242Z,1.58
2019-01-03T17:50:20.513Z,1.62
2019-01-03T17:52:49.658Z,1.73
2019-01-03T17:55:18.761Z,1.73
2019-01-03T17:57:48.033Z,1.73
2019-01-03T18:00:20.794Z,1.64
2019-01-03T18:02:50.305Z,1.71
2019-01-03T18:05:19.745Z,1.67
2019-01-03T18:07:48.918Z,1.66
2019-01-03T18:10:18.199Z,1.58
2019-01-03T18:12:47.352Z,1.73
2019-01-03T18:15:16.691Z,1.67
2019-01-03T18:17:45.813Z,1.67
2019-01-03T18:20:18.801Z,1.71
2019-01-03T18:22:48.033Z,1.63
2019-01-03T18:25:17.234Z,1.58
2019-01-03T18:27:47.816Z,1.49
2019-01-03T18:30:16.878Z,1.38
2019-01-03T18:32:46.006Z,1.38
2019-01-03T18:35:15.104Z,1.40
2019-01-03T18:37:44.341Z,1.37
2019-01-03T18:40:15.468Z,1.37
2019-01-03T18:42:44.721Z,1.34
2019-01-03T18:45:17.153Z,1.33
2019-01-03T18:47:46.441Z,1.40
2019-01-03T18:50:18.859Z,1.28
2019-01-03T18:52:46.683Z,1.28
2019-01-03T18:55:15.789Z,1.24
2019-01-03T18:57:45.108Z,1.20
2019-01-03T19:00:14.398Z,1.31
2019-01-03T19:02:43.637Z,1.33
2019-01-03T19:05:13.070Z,1.34
2019-01-03T19:07:42.283Z,1.25
2019-01-03T19:10:12.159Z,1.22
2019-01-03T19:12:41.735Z,1.18
2019-01-03T19:15:12.029Z,1.25
2019-01-03T19:17:41.752Z,1.24
2019-01-03T19:20:11.844Z,1.29
2019-01-03T19:22:41.796Z,1.42
2019-01-03T19:25:16.714Z,1.53
2019-01-03T19:27:46.213Z,1.39
2019-01-03T19:30:15.458Z,1.28
2019-01-03T19:32:44.734Z,1.41
2019-01-03T19:35:14.343Z,1.47
2019-01-03T19:37:43.579Z,1.61
2019-01-03T19:40:14.675Z,1.53
2019-01-03T19:42:45.826Z,1.54
2019-01-03T19:45:15.074Z,1.65
2019-01-03T19:47:44.178Z,1.51
2019-01-03T19:50:15.907Z,1.61
2019-01-03T19:52:45.337Z,1.66
2019-01-03T19:55:14.618Z,1.65
2019-01-03T19:57:44.299Z,1.61
2019-01-03T20:00:14.878Z,1.62
2019-01-03T20:02:44.215Z,1.66
2019-01-03T20:05:13.472Z,1.66
2019-01-03T20:07:42.825Z,1.74
2019-01-03T20:10:13.305Z,1.76
2019-01-03T20:12:43.342Z,1.77
2019-01-03T20:15:13.674Z,1.80
2019-01-03T20:17:42.751Z,1.82
2019-01-03T20:20:12.089Z,1.83
2019-01-03T20:22:41.172Z,1.79
2019-01-03T20:25:11.948Z,1.79
2019-01-03T20:27:41.366Z,1.86
2019-01-03T20:30:11.057Z,1.87
2019-01-03T20:32:40.135Z,1.88
2019-01-03T20:35:09.772Z,1.81
2019-01-03T20:37:39.245Z,1.83
2019-01-03T20:40:09.310Z,1.83
2019-01-03T20:42:38.621Z,1.75
2019-01-03T20:45:10.699Z,1.73
2019-01-03T20:47:40.183Z,1.72
2019-01-03T20:50:10.510Z,1.81
2019-01-03T20:52:39.573Z,1.82
2019-01-03T20:55:10.484Z,1.81
2019-01-03T20:57:42.592Z,1.81
2019-01-03T21:00:14.389Z,1.74
2019-01-03T21:02:43.934Z,1.78
2019-01-03T21:05:13.304Z,1.78
2019-01-03T21:07:42.420Z,1.79
2019-01-03T21:10:13.012Z,1.87
2019-01-03T21:12:42.549Z,1.85
2019-01-03T21:15:14.984Z,1.77
2019-01-03T21:17:44.239Z,1.77
2019-01-03T21:20:14.486Z,1.79
2019-01-03T21:22:43.693Z,1.69
2019-01-03T21:25:13.710Z,1.66
2019-01-03T21:27:43.259Z,1.66
2019-01-03T21:30:15.418Z,1.70
2019-01-03T21:32:44.775Z,1.71
2019-01-03T21:35:14.049Z,1.75
2019-01-03T21:37:43.135Z,1.88
2019-01-03T21:40:13.028Z,1.87
2019-01-03T21:42:42.248Z,1.95
2019-01-03T21:45:11.631Z,1.95
2019-01-03T21:47:40.813Z,1.96
2019-01-03T21:50:11.923Z,1.96
2019-01-03T21:52:41.154Z,1.96
2019-01-03T21:55:10.437Z,1.99
2019-01-03T21:57:39.568Z,2.09
2019-01-03T22:00:12.103Z,2.10
2019-01-03T22:02:41.270Z,2.10
2019-01-03T22:05:10.490Z,2.02
2019-01-03T22:07:39.593Z,2.15
2019-01-03T22:10:13.119Z,2.15
2019-01-03T22:12:42.193Z,2.18
2019-01-03T22:15:11.835Z,2.23
2019-01-03T22:17:41.244Z,2.16
2019-01-03T22:20:11.414Z,2.05
2019-01-03T22:22:40.718Z,2.11
2019-01-03T22:25:09.904Z,2.06
2019-01-03T22:27:38.985Z,2.02
2019-01-03T22:30:10.836Z,2.05
2019-01-03T22:32:40.244Z,1.90
2019-01-03T22:35:09.681Z,1.90
2019-01-03T22:37:38.912Z,1.91
2019-01-03T22:40:09.070Z,1.92
2019-01-03T22:42:38.535Z,1.82
2019-01-03T22:45:09.804Z,2.01
2019-01-03T22:47:39.980Z,2.07
2019-01-03T22:50:10.202Z,1.99
2019-01-03T22:52:39.266Z,1.99
2019-01-03T22:55:10.460Z,1.97
2019-01-03T22:57:39.569Z,1.97
2019-01-03T23:00:39.293Z,2.09
2019-01-03T23:03:10.920Z,2.01
2019-01-03T23:05:40.930Z,2.02
2019-01-03T23:08:09.990Z,2.01
2019-01-03T23:10:39.227Z,2.01
2019-01-03T23:13:08.329Z,2.02
2019-01-03T23:15:37.608Z,2.04
2019-01-03T23:18:06.782Z,1.99
2019-01-03T23:20:35.980Z,1.99
2019-01-03T23:23:05.065Z,1.95
2019-01-03T23:25:34.140Z,1.95
2019-01-03T23:28:03.509Z,1.93
2019-01-03T23:30:32.581Z,1.90
2019-01-03T23:33:01.733Z,1.88
2019-01-03T23:35:30.839Z,2.04
2019-01-03T23:38:00.179Z,1.98
2019-01-03T23:40:29.388Z,1.98
2019-01-03T23:42:58.704Z,2.01
2019-01-03T23:45:29.007Z,1.94
2019-01-03T23:47:59.838Z,1.94
2019-01-03T23:50:42.143Z,1.94
2019-01-03T23:53:11.283Z,2.02
2019-01-03T23:55:49.270Z,2.12
2019-01-03T23:58:18.403Z,2.00
